Time;durP1;ratioP1;P1;durP2;ratioP2;P2;SDS_P1;SDS_P2;PMS_P1;PMS_P2;Temp;Humidity;BMP_temperature;BMP_pressure;BME280_temperature;BME280_humidity;BME280_pressure;Samples;Min_cycle;Max_cycle;Signal;HPM_P1;HPM_P2
2023/02/07 00:02:35;;;;;;;83.30;48.90;;;;;;;-2.03;80.61;102851.08;178776;1262;59519;-90
2023/02/07 00:06:41;;;;;;;80.60;49.60;;;;;;;-2.03;80.42;102842.05;179267;1262;46034;-89
2023/02/07 00:10:47;;;;;;;100.10;58.40;;;;;;;-2.03;80.24;102831.61;178993;1262;45121;-89
2023/02/07 00:14:51;;;;;;;89.20;48.50;;;;;;;-2.01;80.27;102826.94;179017;1265;44702;-89
2023/02/07 00:18:55;;;;;;;91.50;52.40;;;;;;;-2.01;80.41;102825.89;178376;1264;45993;-89
2023/02/07 00:23:03;;;;;;;97.30;52.90;;;;;;;-1.98;80.24;102834.80;178442;1265;60509;-89
2023/02/07 00:27:07;;;;;;;99.00;59.40;;;;;;;-1.94;80.09;102849.27;178429;1262;47618;-89
2023/02/07 00:31:22;;;;;;;126.60;65.00;;;;;;;-1.91;80.20;102854.52;178265;1262;46111;-89
2023/02/07 00:35:25;;;;;;;111.50;64.60;;;;;;;-1.91;80.08;102856.27;178158;1263;44711;-90
2023/02/07 00:39:29;;;;;;;93.00;50.20;;;;;;;-1.89;79.54;102865.34;178319;1263;46056;-87
2023/02/07 00:43:33;;;;;;;91.80;54.10;;;;;;;-1.88;79.71;102861.34;177995;1265;59346;-89
2023/02/07 00:47:39;;;;;;;91.00;49.50;;;;;;;-1.90;79.01;102854.38;178528;1262;45994;-90
2023/02/07 00:51:43;;;;;;;96.60;55.20;;;;;;;-2.12;78.10;102847.15;178591;1266;46101;-89
2023/02/07 00:55:55;;;;;;;101.20;55.10;;;;;;;-2.51;79.27;102831.70;178705;1263;46130;-89
2023/02/07 01:00:00;;;;;;;137.00;72.50;;;;;;;-2.86;80.45;102823.03;179357;1262;45514;-90
2023/02/07 01:04:04;;;;;;;136.00;69.40;;;;;;;-3.13;81.75;102808.55;179351;1262;58235;-91
2023/02/07 01:08:09;;;;;;;149.80;75.40;;;;;;;-3.32;82.05;102807.04;179684;1261;46087;-90
2023/02/07 01:12:14;;;;;;;151.30;77.80;;;;;;;-3.43;83.03;102808.41;179558;1264;45658;-90
2023/02/07 01:16:38;;;;;;;151.60;71.50;;;;;;;-3.55;83.56;102806.98;179435;1261;45764;-89
2023/02/07 01:20:42;;;;;;;121.30;67.60;;;;;;;-3.53;83.41;102795.05;179096;1264;44750;-90
2023/02/07 01:24:46;;;;;;;124.80;68.10;;;;;;;-3.50;83.62;102772.55;178592;1265;59163;-90
2023/02/07 01:28:50;;;;;;;113.70;69.20;;;;;;;-3.43;83.55;102764.17;178479;1264;46089;-89
2023/02/07 01:32:53;;;;;;;114.00;62.70;;;;;;;-3.27;83.28;102762.51;178832;1264;44598;-90
2023/02/07 01:36:58;;;;;;;98.40;54.90;;;;;;;-3.15;82.71;102761.65;178708;1265;46103;-90
2023/02/07 01:41:14;;;;;;;111.70;60.80;;;;;;;-3.05;82.25;102762.16;179731;1264;44777;-89
2023/02/07 01:50:00;;;;;;;100.00;56.10;;;;;;;-2.84;81.21;102746.12;180048;1267;46036;-89
2023/02/07 01:54:09;;;;;;;114.40;62.80;;;;;;;-2.77;80.81;102739.09;178566;1266;44283;-89
2023/02/07 01:58:14;;;;;;;118.50;62.20;;;;;;;-2.75;80.13;102742.09;178545;1267;46079;-89
2023/02/07 02:02:22;;;;;;;95.70;53.20;;;;;;;-2.74;79.83;102747.98;177749;1267;46079;-89
2023/02/07 02:06:32;;;;;;;109.90;58.60;;;;;;;-2.70;79.84;102749.96;178795;1267;59590;-89
2023/02/07 02:10:52;;;;;;;108.30;61.30;;;;;;;-2.67;79.33;102745.48;177891;1266;46057;-89
2023/02/07 02:15:08;;;;;;;95.70;54.20;;;;;;;-2.65;78.66;102748.28;178032;1268;45986;-90
2023/02/07 02:19:42;;;;;;;100.00;58.00;;;;;;;-2.76;79.23;102752.83;177725;1268;46044;-90
2023/02/07 02:24:07;;;;;;;103.00;53.40;;;;;;;-2.99;79.92;102760.85;178012;1268;46124;-89
2023/02/07 02:28:40;;;;;;;112.30;62.30;;;;;;;-3.09;80.21;102766.96;177919;1268;59521;-89
2023/02/07 02:33:05;;;;;;;116.40;63.20;;;;;;;-3.12;80.69;102764.31;177840;1266;45953;-90
2023/02/07 02:37:12;;;;;;;98.50;58.50;;;;;;;-3.17;81.05;102762.67;177595;1267;46011;-88
2023/02/07 02:41:23;;;;;;;115.30;64.10;;;;;;;-3.25;80.60;102761.83;178021;1270;45976;-90
2023/02/07 02:45:45;;;;;;;86.50;54.30;;;;;;;-3.26;81.06;102772.59;177495;1266;54514;-88
2023/02/07 02:49:50;;;;;;;112.40;65.00;;;;;;;-3.23;81.16;102766.21;177625;1270;60379;-89
2023/02/07 02:53:56;;;;;;;110.80;63.40;;;;;;;-3.14;81.89;102769.14;177268;1267;46152;-89
2023/02/07 02:58:09;;;;;;;117.70;70.10;;;;;;;-3.10;81.95;102775.45;178025;1267;46024;-89
2023/02/07 03:02:22;;;;;;;130.70;68.00;;;;;;;-3.06;81.63;102780.03;177990;1268;45992;-89
2023/02/07 03:07:01;;;;;;;136.90;67.30;;;;;;;-3.02;81.36;102775.55;178196;1268;44781;-89
2023/02/07 03:11:21;;;;;;;136.00;76.20;;;;;;;-2.93;81.32;102768.23;178302;1268;58363;-89
2023/02/07 03:15:49;;;;;;;133.70;76.80;;;;;;;-2.84;81.15;102765.41;178240;1268;46094;-90
2023/02/07 03:20:03;;;;;;;123.30;68.90;;;;;;;-2.78;80.90;102766.70;178056;1267;46130;-90
2023/02/07 03:24:15;;;;;;;118.30;69.20;;;;;;;-2.81;80.86;102768.91;177924;1266;46049;-88
2023/02/07 03:28:22;;;;;;;117.40;67.70;;;;;;;-2.90;80.99;102774.35;177707;1266;46357;-89
2023/02/07 03:32:36;;;;;;;126.80;69.60;;;;;;;-2.93;81.01;102775.53;177744;1267;59620;-90
2023/02/07 03:37:26;;;;;;;129.80;70.70;;;;;;;-2.89;80.51;102780.09;178210;1268;46121;-89
2023/02/07 03:41:55;;;;;;;150.10;75.50;;;;;;;-2.87;80.29;102787.75;178213;1273;44854;-90
2023/02/07 03:45:59;;;;;;;132.00;70.00;;;;;;;-2.88;79.54;102786.53;177990;1273;44574;-90
2023/02/07 03:50:07;;;;;;;128.00;74.50;;;;;;;-2.90;78.87;102789.81;177495;1272;44101;-90
2023/02/07 03:54:11;;;;;;;114.30;65.10;;;;;;;-2.94;78.56;102780.37;177796;1274;59656;-90
2023/02/07 03:58:25;;;;;;;139.40;70.60;;;;;;;-2.97;78.45;102782.41;177632;1273;45234;-88
2023/02/07 04:03:00;;;;;;;122.60;74.10;;;;;;;-3.01;78.64;102791.73;180169;1265;80189;-83
2023/02/07 04:07:05;;;;;;;124.10;68.90;;;;;;;-3.08;79.36;102795.27;180548;1267;44488;-84
2023/02/07 04:11:10;;;;;;;161.80;75.10;;;;;;;-3.11;79.37;102794.36;180486;1266;44281;-84
2023/02/07 04:15:20;;;;;;;136.40;74.60;;;;;;;-3.10;79.83;102800.97;180595;1268;59706;-84
2023/02/07 04:19:26;;;;;;;113.30;63.70;;;;;;;-3.07;80.07;102799.81;180511;1266;43931;-82
2023/02/07 04:23:32;;;;;;;102.80;60.80;;;;;;;-3.13;80.62;102797.27;180589;1266;43524;-82
2023/02/07 04:28:33;;;;;;;133.40;68.30;;;;;;;-3.24;81.12;102798.32;180436;1267;43357;-83
2023/02/07 04:32:37;;;;;;;110.10;63.90;;;;;;;-3.27;81.39;102794.09;180628;1266;44034;-83
2023/02/07 04:36:51;;;;;;;120.40;65.70;;;;;;;-3.29;81.34;102793.72;180530;1266;58264;-83
2023/02/07 04:41:03;;;;;;;103.80;55.40;;;;;;;-3.30;81.60;102795.80;180549;1267;43545;-83
2023/02/07 04:45:31;;;;;;;90.80;55.90;;;;;;;-3.38;80.76;102800.86;180563;1266;43528;-83
2023/02/07 04:49:34;;;;;;;113.90;66.10;;;;;;;-3.66;81.11;102804.21;180514;1265;46004;-82
2023/02/07 04:53:39;;;;;;;154.00;77.60;;;;;;;-3.83;81.44;102799.54;180601;1265;43805;-83
2023/02/07 04:57:43;;;;;;;141.90;74.60;;;;;;;-3.97;81.91;102809.50;180543;1267;58206;-82
2023/02/07 05:01:48;;;;;;;121.30;62.40;;;;;;;-3.96;82.83;102812.65;180384;1266;43866;-83
2023/02/07 05:06:17;;;;;;;138.30;76.50;;;;;;;-4.12;83.57;102813.21;180241;1266;188673;-85
2023/02/07 05:10:21;;;;;;;141.30;79.30;;;;;;;-4.27;83.69;102813.44;180450;1265;46004;-84
2023/02/07 05:14:29;;;;;;;130.40;74.90;;;;;;;-4.24;82.93;102808.46;180422;1267;45973;-83
2023/02/07 05:18:33;;;;;;;128.90;74.90;;;;;;;-4.20;81.80;102794.17;180353;1267;58610;-84
2023/02/07 05:22:37;;;;;;;128.10;75.90;;;;;;;-4.16;81.48;102795.09;180414;1266;43493;-85
2023/02/07 05:38:30;;;;;;;142.60;85.00;;;;;;;-3.41;79.32;102787.09;176741;1281;580899;-65
2023/02/07 05:42:59;;;;;;;121.70;76.50;;;;;;;-3.20;77.96;102796.12;174231;1273;60534;-90
2023/02/07 05:47:33;;;;;;;128.80;73.50;;;;;;;-3.19;77.30;102795.78;179090;1267;44806;31
2023/02/07 06:23:38;;;;;;;103.20;56.30;;;;;;;-3.72;79.36;102805.98;157912;1265;76741;-84
2023/02/07 06:27:42;;;;;;;89.70;45.70;;;;;;;-3.86;79.57;102816.49;180406;1268;43435;-81
2023/02/07 06:31:46;;;;;;;91.40;52.60;;;;;;;-3.84;80.05;102821.55;180418;1267;43523;-82
2023/02/07 06:36:02;;;;;;;95.50;51.70;;;;;;;-3.86;80.02;102818.75;180461;1268;59005;-81
2023/02/07 06:40:07;;;;;;;91.20;52.20;;;;;;;-3.93;80.14;102813.77;180359;1269;43493;-81
2023/02/07 06:44:12;;;;;;;119.10;59.20;;;;;;;-4.03;80.88;102820.14;180369;1269;43684;-81
2023/02/07 06:48:34;;;;;;;89.20;48.00;;;;;;;-4.04;81.20;102823.44;180253;1269;43621;-81
2023/02/07 06:52:39;;;;;;;84.80;46.70;;;;;;;-4.00;81.87;102833.39;180457;1268;43673;-81
2023/02/07 06:57:08;;;;;;;88.30;51.60;;;;;;;-3.96;82.21;102844.21;180298;1270;58337;-81
2023/02/07 07:01:12;;;;;;;104.30;60.50;;;;;;;-3.82;82.46;102852.45;180484;1270;44116;-80
2023/02/07 07:05:16;;;;;;;112.10;64.00;;;;;;;-3.62;81.75;102852.30;180553;1270;43517;-81
2023/02/07 07:09:20;;;;;;;108.90;53.30;;;;;;;-3.45;81.84;102861.13;179992;1270;43703;-80
2023/02/07 07:33:49;;;;;;;75.40;45.90;;;;;;;-3.22;84.78;102862.56;170932;1289;79051;-78
2023/02/07 07:42:35;;;;;;;124.80;65.40;;;;;;;-3.11;86.18;102862.92;149982;1267;44116;-79
2023/02/07 07:46:49;;;;;;;122.10;71.40;;;;;;;-3.07;86.19;102866.62;180527;1267;45810;-80
2023/02/07 07:50:52;;;;;;;131.80;76.10;;;;;;;-2.90;86.11;102870.73;180435;1267;58812;-80
2023/02/07 07:55:20;;;;;;;119.80;60.20;;;;;;;-2.77;85.54;102861.73;180258;1263;76223;-88
2023/02/07 07:59:27;;;;;;;101.10;58.70;;;;;;;-2.67;85.39;102857.01;179864;1267;44810;-89
2023/02/07 08:08:55;;;;;;;144.00;81.80;;;;;;;-2.32;85.37;102855.94;179864;1265;45914;-88
2023/02/07 08:13:27;;;;;;;127.80;74.40;;;;;;;-2.15;84.47;102857.70;179508;1267;59038;-88
2023/02/07 08:17:37;;;;;;;127.70;70.10;;;;;;;-1.93;83.86;102855.55;179437;1267;46077;-89
2023/02/07 08:21:41;;;;;;;126.20;70.20;;;;;;;-1.88;83.34;102859.09;179567;1263;45975;-91
2023/02/07 08:25:49;;;;;;;123.30;69.80;;;;;;;-1.76;83.83;102871.23;179535;1264;46034;-91
2023/02/07 08:29:52;;;;;;;113.20;65.60;;;;;;;-1.62;83.32;102869.64;179545;1264;46002;-91
2023/02/07 08:33:54;;;;;;;123.70;69.40;;;;;;;-1.48;83.44;102858.64;179297;1264;60319;-91
2023/02/07 08:37:57;;;;;;;110.10;67.60;;;;;;;-1.25;83.29;102846.50;179178;1264;50249;-91
2023/02/07 08:42:01;;;;;;;116.10;67.40;;;;;;;-1.15;82.21;102840.84;179023;1264;45968;-89
2023/02/07 08:46:04;;;;;;;105.50;63.10;;;;;;;-1.18;81.68;102841.68;179119;1264;45999;-89
2023/02/07 08:50:27;;;;;;;110.70;65.60;;;;;;;-1.18;81.97;102830.17;178972;1264;45959;-90
2023/02/07 08:54:30;;;;;;;105.50;65.20;;;;;;;-1.06;83.52;102828.03;179019;1264;57944;-90
2023/02/07 08:58:35;;;;;;;107.10;64.80;;;;;;;-0.85;83.96;102828.52;179041;1264;45921;-90
2023/02/07 09:02:37;;;;;;;103.10;53.70;;;;;;;-0.73;82.72;102828.61;178939;1264;44785;-90
2023/02/07 09:06:40;;;;;;;98.60;60.60;;;;;;;-0.74;82.90;102831.90;178734;1264;46022;-91
2023/02/07 09:10:42;;;;;;;101.50;61.00;;;;;;;-0.58;82.97;102833.58;178547;1267;46021;-90
2023/02/07 09:14:48;;;;;;;102.40;59.50;;;;;;;-0.44;82.41;102832.95;178377;1264;57951;-90
2023/02/07 09:18:50;;;;;;;105.80;58.70;;;;;;;-0.37;81.63;102836.99;178176;1265;46396;-90
2023/02/07 09:27:13;;;;;;;96.10;58.00;;;;;;;-0.28;79.97;102834.59;177988;1264;45997;-90
2023/02/07 09:31:16;;;;;;;106.80;63.70;;;;;;;-0.11;80.29;102837.63;177838;1264;45986;-90
2023/02/07 09:35:18;;;;;;;90.10;52.00;;;;;;;-0.06;79.00;102836.77;178310;1266;59262;-89
2023/02/07 09:39:22;;;;;;;91.00;49.90;;;;;;;-0.17;78.99;102837.09;177875;1263;45979;-90
2023/02/07 09:43:51;;;;;;;90.20;54.40;;;;;;;-0.15;79.64;102840.92;177628;1264;46206;-89
2023/02/07 09:48:03;;;;;;;95.10;56.70;;;;;;;0.10;79.80;102848.34;177726;1264;46592;-89
2023/02/07 09:52:12;;;;;;;78.70;52.30;;;;;;;0.24;78.13;102854.33;177791;1263;45930;-90
2023/02/07 09:56:18;;;;;;;69.50;48.20;;;;;;;0.39;77.62;102860.65;177861;1264;57589;-89
2023/02/07 10:00:42;;;;;;;65.90;41.40;;;;;;;0.53;76.45;102850.73;178400;1265;43959;-90
2023/02/07 10:04:48;;;;;;;69.10;44.90;;;;;;;0.67;76.97;102850.91;177925;1264;46040;-90
2023/02/07 10:08:55;;;;;;;79.40;46.50;;;;;;;0.74;77.27;102846.73;177672;1264;46075;-90
2023/02/07 10:13:12;;;;;;;81.30;43.60;;;;;;;0.84;77.47;102845.50;177647;1264;44721;-89
2023/02/07 10:17:21;;;;;;;87.20;48.60;;;;;;;0.98;75.93;102851.98;178050;1264;59715;-89
2023/02/07 10:22:01;;;;;;;79.20;45.40;;;;;;;1.08;75.52;102847.95;177863;1264;46011;-90
2023/02/07 10:26:31;;;;;;;72.90;44.60;;;;;;;1.22;76.51;102845.48;177794;1264;46080;-90
2023/02/07 10:30:37;;;;;;;73.80;40.90;;;;;;;1.30;76.00;102841.27;178178;1264;45407;-90
2023/02/07 10:34:49;;;;;;;78.10;43.20;;;;;;;1.45;75.12;102833.90;177522;1263;45978;-89
2023/02/07 10:39:05;;;;;;;53.70;34.50;;;;;;;1.66;73.43;102824.04;177657;1264;58242;-90
2023/02/07 10:43:26;;;;;;;56.50;32.30;;;;;;;1.74;71.50;102816.30;177419;1264;46098;-89
2023/02/07 10:47:32;;;;;;;50.20;30.70;;;;;;;1.70;70.93;102807.57;177604;1264;45963;-89
2023/02/07 10:51:38;;;;;;;56.80;34.70;;;;;;;1.76;71.18;102815.95;177320;1264;46148;-89
2023/02/07 10:55:45;;;;;;;55.40;32.80;;;;;;;1.95;72.18;102816.56;177320;1263;45999;-89
2023/02/07 10:59:49;;;;;;;56.30;30.50;;;;;;;2.10;70.74;102814.56;177404;1267;59307;-90
2023/02/07 11:03:52;;;;;;;58.30;30.60;;;;;;;2.15;70.50;102818.91;177521;1264;46094;-89
2023/02/07 11:08:13;;;;;;;38.20;27.70;;;;;;;2.14;69.71;102816.11;177404;1263;46114;-89
2023/02/07 11:12:20;;;;;;;59.00;32.90;;;;;;;2.10;69.65;102814.21;177493;1264;46288;-89
2023/02/07 11:16:23;;;;;;;39.20;22.60;;;;;;;2.06;69.37;102810.20;177585;1263;46149;-90
2023/02/07 11:20:30;;;;;;;28.30;17.90;;;;;;;2.04;68.65;102801.81;177678;1264;59302;-89
2023/02/07 11:24:34;;;;;;;;;;;;;;;2.09;67.71;102796.35;178014;1263;46499;-89
2023/02/07 11:28:37;;;;;;;37.70;21.50;;;;;;;2.11;67.11;102789.17;177441;1267;45812;-89
2023/02/07 11:32:40;;;;;;;32.30;21.00;;;;;;;2.02;67.83;102788.52;177643;1264;45939;-89
2023/02/07 11:36:42;;;;;;;42.40;26.30;;;;;;;1.85;66.57;102787.56;177844;1263;46005;-89
2023/02/07 11:40:47;;;;;;;40.20;24.00;;;;;;;1.84;68.05;102787.23;177272;1265;58227;-89
2023/02/07 11:44:51;;;;;;;36.10;21.20;;;;;;;1.77;67.12;102780.78;177598;1264;46007;-89
2023/02/07 11:48:56;;;;;;;36.70;22.10;;;;;;;1.72;66.50;102785.36;177395;1267;46008;-89
2023/02/07 11:53:00;;;;;;;31.10;20.60;;;;;;;1.84;68.18;102783.90;177712;1264;46017;-90
2023/02/07 11:57:13;;;;;;;30.60;19.90;;;;;;;1.96;67.90;102778.94;177424;1264;46118;-88
2023/02/07 12:01:25;;;;;;;33.50;20.10;;;;;;;2.07;68.20;102773.80;177689;1265;57929;-89
2023/02/07 12:05:40;;;;;;;36.20;20.90;;;;;;;2.10;66.06;102771.15;177883;1264;45998;-90
2023/02/07 12:09:51;;;;;;;51.20;25.60;;;;;;;2.19;66.70;102777.05;177640;1264;45859;-90
2023/02/07 12:14:01;;;;;;;41.50;28.40;;;;;;;2.33;66.82;102775.55;178380;1265;47383;-89
2023/02/07 12:18:04;;;;;;;47.90;29.20;;;;;;;2.32;66.66;102775.90;178078;1264;46363;-88
2023/02/07 12:22:20;;;;;;;40.30;28.40;;;;;;;2.34;67.68;102775.89;178066;1265;58053;-90
2023/02/07 12:26:46;;;;;;;53.40;28.10;;;;;;;2.25;68.19;102768.95;177920;1262;46136;-90
2023/02/07 12:30:55;;;;;;;65.70;35.40;;;;;;;2.26;68.56;102760.54;178094;1263;44574;-90
2023/02/07 12:35:29;;;;;;;55.30;31.20;;;;;;;2.29;68.35;102753.52;178049;1263;46127;-90
2023/02/07 12:39:35;;;;;;;42.90;29.50;;;;;;;2.37;67.74;102745.57;178078;1265;46033;-90
2023/02/07 12:43:47;;;;;;;45.20;28.60;;;;;;;2.43;67.64;102741.50;177664;1265;59410;-90
2023/02/07 12:48:16;;;;;;;44.40;26.50;;;;;;;2.47;67.56;102736.21;177531;1264;44283;-90
2023/02/07 12:52:43;;;;;;;43.30;27.60;;;;;;;2.42;67.51;102731.88;177461;1271;46091;-89
2023/02/07 12:56:55;;;;;;;39.90;25.20;;;;;;;2.37;67.92;102730.16;177418;1268;46045;-90
2023/02/07 13:01:12;;;;;;;45.60;25.30;;;;;;;2.19;67.77;102728.73;177539;1269;46000;-89
2023/02/07 13:05:23;;;;;;;42.30;26.60;;;;;;;2.13;67.51;102726.48;177267;1269;59489;-90
2023/02/07 13:10:00;;;;;;;42.00;26.40;;;;;;;2.08;67.30;102725.11;177882;1270;45269;-90
2023/02/07 13:14:22;;;;;;;36.40;22.90;;;;;;;2.02;67.77;102718.34;177429;1274;46139;-91
2023/02/07 13:18:41;;;;;;;41.50;21.00;;;;;;;2.02;67.14;102711.69;177084;1274;46053;-89
2023/02/07 13:22:53;;;;;;;35.70;22.00;;;;;;;2.05;67.40;102713.23;176401;1273;46050;-89
2023/02/07 13:27:03;;;;;;;33.50;24.30;;;;;;;2.05;67.91;102706.23;177016;1274;59335;-90
2023/02/07 13:31:14;;;;;;;38.60;25.60;;;;;;;2.16;67.74;102709.67;177495;1268;45788;-90
2023/02/07 13:35:22;;;;;;;33.40;19.20;;;;;;;2.27;66.79;102700.98;177612;1268;45928;-89
2023/02/07 13:39:47;;;;;;;34.70;21.00;;;;;;;2.34;66.40;102703.91;177270;1269;45988;-89
2023/02/07 13:43:57;;;;;;;33.20;22.30;;;;;;;2.39;67.07;102692.66;177680;1268;46130;-89
2023/02/07 13:48:46;;;;;;;28.50;18.40;;;;;;;2.42;66.84;102691.23;177742;1268;58514;-89
2023/02/07 13:53:12;;;;;;;41.30;23.80;;;;;;;2.40;65.42;102685.65;177758;1264;45464;-89
2023/02/07 14:01:59;;;;;;;41.40;25.40;;;;;;;2.53;66.18;102691.30;177766;1266;46154;-89
2023/02/07 14:06:21;;;;;;;;;;;;;;;2.60;65.83;102694.58;177919;1265;46344;-89
2023/02/07 14:10:52;;;;;;;49.10;26.60;;;;;;;2.60;65.46;102694.41;177895;1267;60290;-89
2023/02/07 14:15:15;;;;;;;42.00;27.00;;;;;;;2.67;65.84;102694.16;178011;1264;45384;-90
2023/02/07 14:19:44;;;;;;;41.00;25.60;;;;;;;2.78;65.80;102694.59;177622;1264;46465;-90
2023/02/07 14:23:57;;;;;;;35.10;24.80;;;;;;;2.77;65.04;102693.54;178286;1264;45998;-89
2023/02/07 14:28:01;;;;;;;44.50;27.70;;;;;;;2.65;65.00;102685.41;178098;1267;46006;-89
2023/02/07 14:32:16;;;;;;;49.20;31.40;;;;;;;2.69;65.56;102684.33;178317;1265;57132;-90
2023/02/07 14:36:23;;;;;;;39.90;25.00;;;;;;;2.77;64.89;102683.38;178298;1265;45994;-89
2023/02/07 14:40:34;;;;;;;49.10;30.40;;;;;;;2.64;65.30;102689.80;176893;1264;46095;-88
2023/02/07 14:44:38;;;;;;;40.80;27.60;;;;;;;2.42;65.66;102693.69;177576;1264;46033;-88
2023/02/07 14:48:52;;;;;;;59.30;31.10;;;;;;;2.43;65.51;102695.79;176864;1265;46095;-88
2023/02/07 14:52:59;;;;;;;39.30;26.10;;;;;;;2.46;65.60;102686.12;177315;1264;58170;-88
2023/02/07 14:57:07;;;;;;;46.70;25.00;;;;;;;2.44;66.32;102687.90;176978;1265;47333;-87
2023/02/07 15:01:19;;;;;;;40.90;25.80;;;;;;;2.42;66.49;102692.30;177203;1267;45183;-87
2023/02/07 15:05:46;;;;;;;34.70;21.80;;;;;;;2.43;66.50;102700.69;176734;1264;46116;-87
2023/02/07 15:09:48;;;;;;;33.30;22.00;;;;;;;2.42;66.60;102704.20;176843;1265;46095;-87
2023/02/07 15:13:54;;;;;;;39.00;24.70;;;;;;;2.42;66.38;102708.93;177047;1265;59267;-88
2023/02/07 15:18:00;;;;;;;35.70;23.20;;;;;;;2.35;67.22;102715.46;178427;1265;46146;-87
2023/02/07 15:22:04;;;;;;;45.20;28.50;;;;;;;2.29;67.68;102714.29;177259;1265;46016;-87
2023/02/07 15:26:21;;;;;;;47.80;31.00;;;;;;;2.17;68.10;102716.83;178309;1264;45991;-87
2023/02/07 15:30:24;;;;;;;40.20;28.00;;;;;;;2.03;68.34;102720.78;177932;1263;46542;-87
2023/02/07 15:34:33;;;;;;;100.00;53.80;;;;;;;1.96;68.75;102724.33;177326;1267;59406;-90
2023/02/07 15:38:36;;;;;;;90.60;52.00;;;;;;;1.88;69.26;102727.01;177549;1266;46175;-89
2023/02/07 15:42:51;;;;;;;418.60;204.80;;;;;;;1.86;69.59;102732.09;177441;1264;44019;-88
2023/02/07 15:46:56;;;;;;;263.00;127.30;;;;;;;1.85;69.87;102731.58;177718;1264;46127;-87
2023/02/07 15:51:03;;;;;;;110.00;54.60;;;;;;;1.89;69.79;102738.02;177268;1264;44278;-87
2023/02/07 15:55:17;;;;;;;61.40;36.40;;;;;;;1.91;69.61;102735.03;177846;1264;58290;-88
2023/02/07 15:59:33;;;;;;;56.50;32.50;;;;;;;2.00;69.29;102740.39;178622;1265;45930;-89
2023/02/07 16:03:52;;;;;;;113.60;53.60;;;;;;;2.11;69.08;102744.00;180189;1265;48490;-90
2023/02/07 16:17:48;;;;;;;260.60;127.10;;;;;;;2.28;69.01;102750.02;180304;1263;84197;-76
2023/02/07 16:27:39;;;;;;;201.80;107.10;;;;;;;2.20;68.67;102757.08;179878;1265;46053;-76
2023/02/07 16:31:43;;;;;;;113.70;58.10;;;;;;;2.18;69.44;102763.23;179902;1267;46046;-76
2023/02/07 16:35:46;;;;;;;114.30;59.10;;;;;;;2.21;69.63;102759.88;179829;1267;43802;-75
2023/02/07 16:39:48;;;;;;;81.90;46.50;;;;;;;2.24;69.48;102761.42;180118;1267;58234;-75
2023/02/07 16:49:45;;;;;;;88.80;54.30;;;;;;;2.21;69.69;102765.30;179828;1266;43712;-75
2023/02/07 16:53:58;;;;;;;61.90;36.20;;;;;;;2.24;70.37;102765.81;179778;1266;45977;-76
2023/02/07 16:58:03;;;;;;;67.90;42.50;;;;;;;2.27;70.73;102772.08;180044;1265;43696;-75
2023/02/07 17:02:17;;;;;;;51.00;37.20;;;;;;;2.37;70.93;102766.59;180235;1265;57773;-74
2023/02/07 17:06:24;;;;;;;36.90;24.40;;;;;;;2.41;70.45;102772.68;179953;1267;45899;-76
2023/02/07 17:10:31;;;;;;;41.50;26.10;;;;;;;2.30;70.06;102777.32;179799;1267;46085;-76
2023/02/07 17:14:35;;;;;;;;;;;;;;;2.23;70.59;102772.11;179740;1267;44051;-75
2023/02/07 17:18:36;;;;;;;48.10;29.30;;;;;;;2.14;70.66;102770.77;179864;1267;45799;-76
2023/02/07 17:28:16;;;;;;;56.00;34.90;;;;;;;2.05;71.41;102776.08;179800;1267;44012;-75
2023/02/07 17:32:18;;;;;;;39.00;23.30;;;;;;;2.03;72.14;102780.12;179900;1266;43908;-75
2023/02/07 17:36:20;;;;;;;50.40;33.10;;;;;;;2.01;71.84;102778.91;179850;1266;44067;-77
2023/02/07 17:40:38;;;;;;;41.10;26.70;;;;;;;2.03;72.00;102776.44;180059;1266;43512;-78
2023/02/07 17:44:40;;;;;;;37.60;24.80;;;;;;;2.06;72.09;102777.81;179669;1267;58704;-76
2023/02/07 17:48:45;;;;;;;33.70;22.10;;;;;;;2.06;72.46;102780.27;179802;1266;46220;-75
2023/02/07 17:52:47;;;;;;;32.10;23.70;;;;;;;2.02;72.11;102781.52;179796;1267;46091;-75
2023/02/07 17:56:49;;;;;;;35.20;19.90;;;;;;;1.94;72.35;102784.02;179547;1267;44684;-75
2023/02/07 18:00:50;;;;;;;34.70;22.50;;;;;;;1.86;72.32;102791.06;179682;1267;44407;-76
2023/02/07 18:04:52;;;;;;;35.60;23.50;;;;;;;1.81;72.58;102795.64;179595;1267;57904;-75
2023/02/07 18:08:57;;;;;;;48.90;30.70;;;;;;;1.81;72.23;102797.38;179837;1267;43580;-75
2023/02/07 18:12:59;;;;;;;44.40;25.80;;;;;;;1.81;72.45;102798.79;179983;1267;43665;-76
2023/02/07 18:17:01;;;;;;;34.90;23.00;;;;;;;1.76;73.03;102798.62;179983;1266;43607;-76
2023/02/07 18:21:03;;;;;;;38.00;21.20;;;;;;;1.78;73.37;102798.81;179969;1266;45921;-76
2023/02/07 18:26:08;;;;;;;30.40;19.30;;;;;;;1.84;74.12;102802.09;179883;1268;58450;-76
2023/02/07 18:30:11;;;;;;;32.10;21.90;;;;;;;1.95;74.22;102803.61;180019;1267;44056;-76
2023/02/07 18:34:51;;;;;;;40.40;21.40;;;;;;;1.99;74.73;102808.50;180105;1267;43667;-77
2023/02/07 18:38:56;;;;;;;30.70;20.20;;;;;;;1.98;74.07;102810.96;180326;1267;46172;-78
2023/02/07 18:43:48;;;;;;;33.20;21.60;;;;;;;2.00;72.94;102816.02;180723;1266;43550;-76
2023/02/07 18:47:54;;;;;;;27.20;18.50;;;;;;;1.96;72.52;102822.87;180135;1264;74813;-91
2023/02/07 18:56:40;;;;;;;28.10;18.70;;;;;;;1.92;73.01;102826.56;178441;1267;45968;-90
2023/02/07 19:00:42;;;;;;;40.70;24.00;;;;;;;1.95;73.58;102827.23;178871;1268;45969;-89
2023/02/07 19:04:46;;;;;;;43.60;28.70;;;;;;;1.99;73.68;102830.73;177998;1268;46003;-90
2023/02/07 19:08:50;;;;;;;67.50;31.70;;;;;;;1.95;72.25;102831.61;177594;1267;59427;-90
2023/02/07 19:12:52;;;;;;;42.50;26.10;;;;;;;1.94;71.93;102834.42;177915;1270;46054;-89
2023/02/07 19:21:59;;;;;;;42.60;27.00;;;;;;;1.80;73.85;102836.59;177070;1270;45954;-89
2023/02/07 19:26:03;;;;;;;46.50;29.70;;;;;;;1.72;73.55;102833.98;176974;1270;239051;-89
2023/02/07 19:30:07;;;;;;;44.00;27.90;;;;;;;1.65;73.03;102833.48;177348;1270;59650;-88
2023/02/07 19:34:11;;;;;;;55.90;31.20;;;;;;;1.62;73.55;102833.33;177116;1273;45975;-87
2023/02/07 19:38:15;;;;;;;49.10;28.70;;;;;;;1.59;74.16;102828.44;177288;1272;44934;-88
2023/02/07 19:42:18;;;;;;;27.40;19.90;;;;;;;1.51;74.84;102829.67;177354;1270;44263;-88
2023/02/07 19:46:22;;;;;;;35.30;22.10;;;;;;;1.44;74.25;102825.86;176889;1270;46006;-89
2023/02/07 19:50:25;;;;;;;43.20;26.70;;;;;;;1.40;73.98;102825.52;176572;1270;58574;-86
2023/02/07 19:54:31;;;;;;;58.50;31.70;;;;;;;1.36;74.22;102827.98;176879;1270;46011;-88
2023/02/07 19:58:34;;;;;;;31.60;14.60;;;;;;;1.31;73.66;102821.34;177528;1269;46015;-88
2023/02/07 20:02:37;;;;;;;36.40;19.30;;;;;;;1.31;71.49;102819.42;177021;1270;46126;-88
2023/02/07 20:06:40;;;;;;;29.80;18.80;;;;;;;1.27;72.86;102817.86;179124;1270;44116;-88
2023/02/07 20:10:46;;;;;;;30.70;18.60;;;;;;;1.32;73.45;102822.04;178189;1270;58356;-88
2023/02/07 20:14:48;;;;;;;34.00;19.10;;;;;;;1.39;73.86;102827.10;177667;1270;44102;-88
2023/02/07 20:18:51;;;;;;;31.70;20.40;;;;;;;1.42;73.21;102829.20;177205;1272;46133;-88
2023/02/07 20:22:55;;;;;;;38.10;23.50;;;;;;;1.41;72.51;102827.80;177163;1270;46104;-89
2023/02/07 20:26:58;;;;;;;29.40;20.20;;;;;;;1.44;73.39;102830.40;177011;1270;46095;-87
2023/02/07 20:31:01;;;;;;;20.90;13.50;;;;;;;1.43;73.46;102828.66;176335;1270;58135;-88
2023/02/07 20:35:04;;;;;;;24.90;16.40;;;;;;;1.42;72.32;102828.14;176247;1270;46122;-88
2023/02/07 20:39:11;;;;;;;32.40;16.90;;;;;;;1.46;71.93;102834.24;177016;1270;45983;-88
2023/02/07 20:43:13;;;;;;;39.20;24.20;;;;;;;1.52;72.10;102837.73;177653;1270;46184;-89
2023/02/07 20:47:16;;;;;;;36.50;20.20;;;;;;;1.57;72.26;102833.16;177314;1269;45995;-89
2023/02/07 20:51:22;;;;;;;33.80;19.10;;;;;;;1.58;71.92;102840.52;176630;1270;58260;-89
2023/02/07 20:55:24;;;;;;;29.20;17.60;;;;;;;1.55;70.76;102840.86;176835;1270;46007;-86